sensor_id;sensor_type;location;lat;lon;timestamp;P1;durP1;ratioP1;P2;durP2;ratioP2
9924;SDS011;5001;51.674;7.868;2023-06-26T00:01:32;5.97;;;4.95;;
9924;SDS011;5001;51.674;7.868;2023-06-26T00:03:59;10.10;;;5.57;;
9924;SDS011;5001;51.674;7.868;2023-06-26T00:06:27;8.02;;;5.18;;
9924;SDS011;5001;51.674;7.868;2023-06-26T00:08:55;8.02;;;5.53;;
9924;SDS011;5001;51.674;7.868;2023-06-26T00:11:23;7.20;;;5.68;;
9924;SDS011;5001;51.674;7.868;2023-06-26T00:13:50;8.85;;;5.80;;
9924;SDS011;5001;51.674;7.868;2023-06-26T00:16:17;6.05;;;5.30;;
9924;SDS011;5001;51.674;7.868;2023-06-26T00:18:44;6.80;;;5.28;;
9924;SDS011;5001;51.674;7.868;2023-06-26T00:21:11;8.23;;;5.97;;
9924;SDS011;5001;51.674;7.868;2023-06-26T00:23:38;6.25;;;5.18;;
9924;SDS011;5001;51.674;7.868;2023-06-26T00:26:06;9.50;;;5.85;;
9924;SDS011;5001;51.674;7.868;2023-06-26T00:28:33;7.63;;;5.38;;
9924;SDS011;5001;51.674;7.868;2023-06-26T00:31:00;8.75;;;5.10;;
9924;SDS011;5001;51.674;7.868;2023-06-26T00:33:28;8.70;;;5.38;;
9924;SDS011;5001;51.674;7.868;2023-06-26T00:35:59;7.28;;;5.50;;
9924;SDS011;5001;51.674;7.868;2023-06-26T00:38:26;8.00;;;5.38;;
9924;SDS011;5001;51.674;7.868;2023-06-26T00:40:53;6.50;;;5.22;;
9924;SDS011;5001;51.674;7.868;2023-06-26T00:43:22;6.30;;;5.07;;
9924;SDS011;5001;51.674;7.868;2023-06-26T00:45:49;7.30;;;5.60;;
9924;SDS011;5001;51.674;7.868;2023-06-26T00:48:16;7.72;;;5.60;;
9924;SDS011;5001;51.674;7.868;2023-06-26T00:50:43;8.32;;;5.80;;
9924;SDS011;5001;51.674;7.868;2023-06-26T00:53:11;12.60;;;5.20;;
9924;SDS011;5001;51.674;7.868;2023-06-26T00:55:38;9.27;;;5.13;;
9924;SDS011;5001;51.674;7.868;2023-06-26T00:58:05;7.03;;;5.45;;
9924;SDS011;5001;51.674;7.868;2023-06-26T01:00:32;7.82;;;5.57;;
9924;SDS011;5001;51.674;7.868;2023-06-26T01:03:00;6.55;;;5.30;;
9924;SDS011;5001;51.674;7.868;2023-06-26T01:05:27;7.88;;;5.15;;
9924;SDS011;5001;51.674;7.868;2023-06-26T01:07:56;9.52;;;5.53;;
9924;SDS011;5001;51.674;7.868;2023-06-26T01:10:25;8.85;;;5.63;;
9924;SDS011;5001;51.674;7.868;2023-06-26T01:12:54;8.02;;;5.25;;
9924;SDS011;5001;51.674;7.868;2023-06-26T01:15:21;6.88;;;5.15;;
9924;SDS011;5001;51.674;7.868;2023-06-26T01:17:50;6.18;;;4.75;;
9924;SDS011;5001;51.674;7.868;2023-06-26T01:20:18;6.13;;;5.28;;
9924;SDS011;5001;51.674;7.868;2023-06-26T01:23:31;10.50;;;5.05;;
9924;SDS011;5001;51.674;7.868;2023-06-26T01:28:27;7.45;;;5.32;;
9924;SDS011;5001;51.674;7.868;2023-06-26T01:30:56;8.18;;;5.78;;
9924;SDS011;5001;51.674;7.868;2023-06-26T01:33:23;9.48;;;5.07;;
9924;SDS011;5001;51.674;7.868;2023-06-26T01:35:50;8.43;;;5.32;;
9924;SDS011;5001;51.674;7.868;2023-06-26T01:38:18;9.15;;;5.70;;
9924;SDS011;5001;51.674;7.868;2023-06-26T01:40:46;12.45;;;5.57;;
9924;SDS011;5001;51.674;7.868;2023-06-26T01:46:16;8.73;;;5.53;;
9924;SDS011;5001;51.674;7.868;2023-06-26T01:49:03;8.63;;;4.78;;
9924;SDS011;5001;51.674;7.868;2023-06-26T01:51:55;6.72;;;4.95;;
9924;SDS011;5001;51.674;7.868;2023-06-26T01:54:30;7.60;;;4.82;;
9924;SDS011;5001;51.674;7.868;2023-06-26T01:57:01;12.60;;;5.57;;
9924;SDS011;5001;51.674;7.868;2023-06-26T01:59:28;8.30;;;5.93;;
9924;SDS011;5001;51.674;7.868;2023-06-26T02:02:00;7.82;;;5.22;;
9924;SDS011;5001;51.674;7.868;2023-06-26T02:04:27;6.55;;;4.75;;
9924;SDS011;5001;51.674;7.868;2023-06-26T02:06:55;8.65;;;4.88;;
9924;SDS011;5001;51.674;7.868;2023-06-26T02:09:22;6.57;;;5.22;;
9924;SDS011;5001;51.674;7.868;2023-06-26T02:11:49;8.80;;;5.40;;
9924;SDS011;5001;51.674;7.868;2023-06-26T02:14:16;12.23;;;5.57;;
9924;SDS011;5001;51.674;7.868;2023-06-26T02:16:43;7.40;;;5.60;;
9924;SDS011;5001;51.674;7.868;2023-06-26T02:19:10;7.07;;;4.63;;
9924;SDS011;5001;51.674;7.868;2023-06-26T02:21:37;6.00;;;5.40;;
9924;SDS011;5001;51.674;7.868;2023-06-26T02:24:05;8.68;;;5.10;;
9924;SDS011;5001;51.674;7.868;2023-06-26T02:26:32;9.25;;;5.03;;
9924;SDS011;5001;51.674;7.868;2023-06-26T02:28:59;8.68;;;4.85;;
9924;SDS011;5001;51.674;7.868;2023-06-26T02:31:26;8.75;;;5.22;;
9924;SDS011;5001;51.674;7.868;2023-06-26T02:33:54;9.50;;;4.80;;
9924;SDS011;5001;51.674;7.868;2023-06-26T02:36:21;9.63;;;5.28;;
9924;SDS011;5001;51.674;7.868;2023-06-26T02:38:48;5.55;;;4.50;;
9924;SDS011;5001;51.674;7.868;2023-06-26T02:41:15;6.85;;;4.97;;
9924;SDS011;5001;51.674;7.868;2023-06-26T02:43:42;8.32;;;4.47;;
9924;SDS011;5001;51.674;7.868;2023-06-26T02:46:09;6.78;;;4.78;;
9924;SDS011;5001;51.674;7.868;2023-06-26T02:48:36;6.00;;;4.43;;
9924;SDS011;5001;51.674;7.868;2023-06-26T02:51:03;6.95;;;4.72;;
9924;SDS011;5001;51.674;7.868;2023-06-26T02:53:31;4.63;;;4.22;;
9924;SDS011;5001;51.674;7.868;2023-06-26T02:55:58;9.65;;;4.68;;
9924;SDS011;5001;51.674;7.868;2023-06-26T02:58:25;6.95;;;4.50;;
9924;SDS011;5001;51.674;7.868;2023-06-26T03:00:52;7.53;;;4.82;;
9924;SDS011;5001;51.674;7.868;2023-06-26T03:03:20;5.35;;;4.78;;
9924;SDS011;5001;51.674;7.868;2023-06-26T03:05:47;6.40;;;5.28;;
9924;SDS011;5001;51.674;7.868;2023-06-26T03:08:14;11.75;;;4.97;;
9924;SDS011;5001;51.674;7.868;2023-06-26T03:10:41;9.82;;;5.55;;
9924;SDS011;5001;51.674;7.868;2023-06-26T03:13:09;9.35;;;4.57;;
9924;SDS011;5001;51.674;7.868;2023-06-26T03:15:36;8.00;;;5.60;;
9924;SDS011;5001;51.674;7.868;2023-06-26T03:18:04;9.02;;;5.05;;
9924;SDS011;5001;51.674;7.868;2023-06-26T03:20:31;14.20;;;8.70;;
9924;SDS011;5001;51.674;7.868;2023-06-26T03:22:58;24.10;;;15.27;;
9924;SDS011;5001;51.674;7.868;2023-06-26T03:25:25;7.75;;;5.22;;
9924;SDS011;5001;51.674;7.868;2023-06-26T03:28:12;18.98;;;11.60;;
9924;SDS011;5001;51.674;7.868;2023-06-26T03:30:39;21.17;;;12.18;;
9924;SDS011;5001;51.674;7.868;2023-06-26T03:33:07;12.25;;;8.00;;
9924;SDS011;5001;51.674;7.868;2023-06-26T03:35:34;13.88;;;10.13;;
9924;SDS011;5001;51.674;7.868;2023-06-26T03:38:01;15.75;;;10.57;;
9924;SDS011;5001;51.674;7.868;2023-06-26T03:40:28;13.70;;;8.95;;
9924;SDS011;5001;51.674;7.868;2023-06-26T03:42:55;8.32;;;6.43;;
9924;SDS011;5001;51.674;7.868;2023-06-26T03:45:22;11.10;;;5.55;;
9924;SDS011;5001;51.674;7.868;2023-06-26T03:47:49;11.18;;;7.03;;
9924;SDS011;5001;51.674;7.868;2023-06-26T03:50:16;15.35;;;10.30;;
9924;SDS011;5001;51.674;7.868;2023-06-26T03:52:44;21.95;;;12.88;;
9924;SDS011;5001;51.674;7.868;2023-06-26T03:55:12;12.80;;;8.60;;
9924;SDS011;5001;51.674;7.868;2023-06-26T03:57:39;11.80;;;8.85;;
9924;SDS011;5001;51.674;7.868;2023-06-26T04:00:08;7.75;;;6.07;;
9924;SDS011;5001;51.674;7.868;2023-06-26T04:02:40;8.57;;;4.95;;
9924;SDS011;5001;51.674;7.868;2023-06-26T04:05:07;11.63;;;5.38;;
9924;SDS011;5001;51.674;7.868;2023-06-26T04:07:34;10.57;;;4.53;;
9924;SDS011;5001;51.674;7.868;2023-06-26T04:10:03;12.55;;;4.95;;
9924;SDS011;5001;51.674;7.868;2023-06-26T04:12:32;8.48;;;4.57;;
9924;SDS011;5001;51.674;7.868;2023-06-26T04:14:58;10.13;;;4.72;;
9924;SDS011;5001;51.674;7.868;2023-06-26T04:17:25;6.93;;;4.43;;
9924;SDS011;5001;51.674;7.868;2023-06-26T04:19:52;6.43;;;4.97;;
9924;SDS011;5001;51.674;7.868;2023-06-26T04:22:19;5.03;;;3.67;;
9924;SDS011;5001;51.674;7.868;2023-06-26T04:24:46;10.77;;;4.53;;
9924;SDS011;5001;51.674;7.868;2023-06-26T04:27:13;7.55;;;4.70;;
9924;SDS011;5001;51.674;7.868;2023-06-26T04:29:40;5.95;;;3.95;;
9924;SDS011;5001;51.674;7.868;2023-06-26T04:32:07;5.22;;;3.97;;
9924;SDS011;5001;51.674;7.868;2023-06-26T04:34:34;5.80;;;3.80;;
9924;SDS011;5001;51.674;7.868;2023-06-26T04:37:02;8.60;;;3.80;;
9924;SDS011;5001;51.674;7.868;2023-06-26T04:39:30;7.22;;;4.13;;
9924;SDS011;5001;51.674;7.868;2023-06-26T04:41:57;7.28;;;4.05;;
9924;SDS011;5001;51.674;7.868;2023-06-26T04:44:24;6.25;;;3.13;;
9924;SDS011;5001;51.674;7.868;2023-06-26T04:46:51;7.07;;;3.58;;
9924;SDS011;5001;51.674;7.868;2023-06-26T04:49:18;6.22;;;3.70;;
9924;SDS011;5001;51.674;7.868;2023-06-26T04:51:46;8.00;;;3.83;;
9924;SDS011;5001;51.674;7.868;2023-06-26T04:54:15;5.15;;;3.65;;
9924;SDS011;5001;51.674;7.868;2023-06-26T04:56:41;8.32;;;4.10;;
9924;SDS011;5001;51.674;7.868;2023-06-26T04:59:10;4.60;;;3.25;;
9924;SDS011;5001;51.674;7.868;2023-06-26T05:01:39;6.05;;;3.67;;
9924;SDS011;5001;51.674;7.868;2023-06-26T05:04:07;5.13;;;3.50;;
9924;SDS011;5001;51.674;7.868;2023-06-26T05:06:34;4.85;;;3.60;;
9924;SDS011;5001;51.674;7.868;2023-06-26T05:09:01;5.07;;;3.72;;
9924;SDS011;5001;51.674;7.868;2023-06-26T05:11:28;4.82;;;3.70;;
9924;SDS011;5001;51.674;7.868;2023-06-26T05:13:55;7.80;;;4.20;;
9924;SDS011;5001;51.674;7.868;2023-06-26T05:16:22;5.10;;;3.67;;
9924;SDS011;5001;51.674;7.868;2023-06-26T05:18:49;6.32;;;3.92;;
9924;SDS011;5001;51.674;7.868;2023-06-26T05:21:16;4.32;;;3.47;;
9924;SDS011;5001;51.674;7.868;2023-06-26T05:23:43;6.65;;;4.30;;
9924;SDS011;5001;51.674;7.868;2023-06-26T05:26:12;6.30;;;3.50;;
9924;SDS011;5001;51.674;7.868;2023-06-26T05:28:40;5.82;;;3.72;;
9924;SDS011;5001;51.674;7.868;2023-06-26T05:31:07;6.55;;;4.20;;
9924;SDS011;5001;51.674;7.868;2023-06-26T05:33:34;5.55;;;3.92;;
9924;SDS011;5001;51.674;7.868;2023-06-26T05:36:03;7.20;;;3.88;;
9924;SDS011;5001;51.674;7.868;2023-06-26T05:38:32;6.53;;;4.05;;
9924;SDS011;5001;51.674;7.868;2023-06-26T05:40:59;5.50;;;4.10;;
9924;SDS011;5001;51.674;7.868;2023-06-26T05:43:27;5.03;;;3.90;;
9924;SDS011;5001;51.674;7.868;2023-06-26T05:45:56;6.25;;;3.85;;
9924;SDS011;5001;51.674;7.868;2023-06-26T05:48:26;3.92;;;3.53;;
9924;SDS011;5001;51.674;7.868;2023-06-26T05:50:53;5.35;;;3.88;;
9924;SDS011;5001;51.674;7.868;2023-06-26T05:53:21;7.45;;;6.10;;
9924;SDS011;5001;51.674;7.868;2023-06-26T05:55:48;11.00;;;7.00;;
9924;SDS011;5001;51.674;7.868;2023-06-26T05:58:15;10.57;;;7.93;;
9924;SDS011;5001;51.674;7.868;2023-06-26T06:00:44;12.68;;;9.73;;
9924;SDS011;5001;51.674;7.868;2023-06-26T06:03:11;6.03;;;4.95;;
9924;SDS011;5001;51.674;7.868;2023-06-26T06:05:38;14.30;;;10.70;;
9924;SDS011;5001;51.674;7.868;2023-06-26T06:08:05;11.70;;;8.35;;
9924;SDS011;5001;51.674;7.868;2023-06-26T06:10:32;20.58;;;13.07;;
9924;SDS011;5001;51.674;7.868;2023-06-26T06:13:00;15.88;;;11.55;;
9924;SDS011;5001;51.674;7.868;2023-06-26T06:15:27;10.23;;;6.63;;
9924;SDS011;5001;51.674;7.868;2023-06-26T06:17:56;9.25;;;6.43;;
9924;SDS011;5001;51.674;7.868;2023-06-26T06:20:24;10.38;;;6.07;;
9924;SDS011;5001;51.674;7.868;2023-06-26T06:22:51;8.02;;;4.53;;
9924;SDS011;5001;51.674;7.868;2023-06-26T06:25:19;6.35;;;4.68;;
9924;SDS011;5001;51.674;7.868;2023-06-26T06:27:45;9.07;;;6.32;;
9924;SDS011;5001;51.674;7.868;2023-06-26T06:30:12;10.40;;;7.03;;
9924;SDS011;5001;51.674;7.868;2023-06-26T06:32:40;9.90;;;5.40;;
9924;SDS011;5001;51.674;7.868;2023-06-26T06:35:07;5.50;;;4.57;;
9924;SDS011;5001;51.674;7.868;2023-06-26T06:37:37;7.88;;;5.45;;
9924;SDS011;5001;51.674;7.868;2023-06-26T06:40:06;9.32;;;5.72;;
9924;SDS011;5001;51.674;7.868;2023-06-26T06:42:35;9.45;;;5.28;;
9924;SDS011;5001;51.674;7.868;2023-06-26T06:45:03;7.13;;;4.85;;
9924;SDS011;5001;51.674;7.868;2023-06-26T06:47:31;7.80;;;4.88;;
9924;SDS011;5001;51.674;7.868;2023-06-26T06:49:59;5.50;;;3.42;;
9924;SDS011;5001;51.674;7.868;2023-06-26T06:52:37;8.25;;;4.35;;
9924;SDS011;5001;51.674;7.868;2023-06-26T06:55:06;6.03;;;3.88;;
9924;SDS011;5001;51.674;7.868;2023-06-26T06:57:38;5.22;;;4.25;;
9924;SDS011;5001;51.674;7.868;2023-06-26T07:00:09;9.55;;;4.00;;
9924;SDS011;5001;51.674;7.868;2023-06-26T07:02:39;5.78;;;4.10;;
9924;SDS011;5001;51.674;7.868;2023-06-26T07:05:07;9.10;;;4.70;;
9924;SDS011;5001;51.674;7.868;2023-06-26T07:07:35;8.52;;;5.35;;
9924;SDS011;5001;51.674;7.868;2023-06-26T07:10:03;9.95;;;4.00;;
9924;SDS011;5001;51.674;7.868;2023-06-26T07:12:32;9.05;;;4.55;;
9924;SDS011;5001;51.674;7.868;2023-06-26T07:15:00;7.07;;;3.85;;
9924;SDS011;5001;51.674;7.868;2023-06-26T07:17:29;6.03;;;3.58;;
9924;SDS011;5001;51.674;7.868;2023-06-26T07:19:56;7.43;;;3.63;;
9924;SDS011;5001;51.674;7.868;2023-06-26T07:22:23;8.18;;;4.43;;
9924;SDS011;5001;51.674;7.868;2023-06-26T07:24:51;6.22;;;3.75;;
9924;SDS011;5001;51.674;7.868;2023-06-26T07:27:18;10.00;;;4.38;;
9924;SDS011;5001;51.674;7.868;2023-06-26T07:29:45;9.77;;;4.22;;
9924;SDS011;5001;51.674;7.868;2023-06-26T07:32:12;10.70;;;6.57;;
9924;SDS011;5001;51.674;7.868;2023-06-26T07:34:41;10.98;;;7.45;;
9924;SDS011;5001;51.674;7.868;2023-06-26T07:37:08;15.32;;;6.03;;
9924;SDS011;5001;51.674;7.868;2023-06-26T07:39:35;7.55;;;4.68;;
9924;SDS011;5001;51.674;7.868;2023-06-26T07:42:01;10.70;;;4.40;;
9924;SDS011;5001;51.674;7.868;2023-06-26T07:44:28;6.47;;;5.15;;
9924;SDS011;5001;51.674;7.868;2023-06-26T07:46:55;9.48;;;5.03;;
9924;SDS011;5001;51.674;7.868;2023-06-26T07:49:22;8.13;;;3.83;;
9924;SDS011;5001;51.674;7.868;2023-06-26T07:51:49;9.20;;;5.00;;
9924;SDS011;5001;51.674;7.868;2023-06-26T07:54:16;6.97;;;4.50;;
9924;SDS011;5001;51.674;7.868;2023-06-26T07:56:56;7.10;;;3.90;;
9924;SDS011;5001;51.674;7.868;2023-06-26T07:59:25;5.40;;;3.55;;
9924;SDS011;5001;51.674;7.868;2023-06-26T08:01:53;5.13;;;3.55;;
9924;SDS011;5001;51.674;7.868;2023-06-26T08:04:22;6.80;;;4.00;;
9924;SDS011;5001;51.674;7.868;2023-06-26T08:06:52;5.47;;;2.90;;
9924;SDS011;5001;51.674;7.868;2023-06-26T08:09:24;5.72;;;3.33;;
9924;SDS011;5001;51.674;7.868;2023-06-26T08:11:52;8.60;;;3.63;;
9924;SDS011;5001;51.674;7.868;2023-06-26T08:14:21;6.75;;;3.63;;
9924;SDS011;5001;51.674;7.868;2023-06-26T08:16:48;5.97;;;3.40;;
9924;SDS011;5001;51.674;7.868;2023-06-26T08:19:15;5.43;;;3.45;;
9924;SDS011;5001;51.674;7.868;2023-06-26T08:21:43;6.65;;;3.53;;
9924;SDS011;5001;51.674;7.868;2023-06-26T08:24:12;8.07;;;4.15;;
9924;SDS011;5001;51.674;7.868;2023-06-26T08:26:46;10.13;;;6.32;;
9924;SDS011;5001;51.674;7.868;2023-06-26T08:29:13;10.15;;;5.88;;
9924;SDS011;5001;51.674;7.868;2023-06-26T08:31:42;9.02;;;5.35;;
9924;SDS011;5001;51.674;7.868;2023-06-26T08:34:09;7.32;;;4.60;;
9924;SDS011;5001;51.674;7.868;2023-06-26T08:36:37;7.35;;;4.18;;
9924;SDS011;5001;51.674;7.868;2023-06-26T08:39:04;9.18;;;6.00;;
9924;SDS011;5001;51.674;7.868;2023-06-26T08:41:32;10.85;;;6.53;;
9924;SDS011;5001;51.674;7.868;2023-06-26T08:43:59;8.00;;;5.80;;
9924;SDS011;5001;51.674;7.868;2023-06-26T08:46:27;8.30;;;4.57;;
9924;SDS011;5001;51.674;7.868;2023-06-26T08:48:56;9.50;;;4.60;;
9924;SDS011;5001;51.674;7.868;2023-06-26T08:51:28;6.57;;;4.22;;
9924;SDS011;5001;51.674;7.868;2023-06-26T08:53:57;5.80;;;3.78;;
9924;SDS011;5001;51.674;7.868;2023-06-26T08:56:34;7.05;;;3.92;;
9924;SDS011;5001;51.674;7.868;2023-06-26T08:59:03;7.07;;;3.97;;
9924;SDS011;5001;51.674;7.868;2023-06-26T09:01:31;7.47;;;3.55;;
9924;SDS011;5001;51.674;7.868;2023-06-26T09:03:58;9.77;;;3.85;;
9924;SDS011;5001;51.674;7.868;2023-06-26T09:06:26;6.25;;;3.67;;
9924;SDS011;5001;51.674;7.868;2023-06-26T09:08:53;14.68;;;8.68;;
9924;SDS011;5001;51.674;7.868;2023-06-26T09:11:21;15.32;;;7.78;;
9924;SDS011;5001;51.674;7.868;2023-06-26T09:13:48;8.57;;;4.63;;
9924;SDS011;5001;51.674;7.868;2023-06-26T09:16:15;8.82;;;4.88;;
9924;SDS011;5001;51.674;7.868;2023-06-26T09:18:42;9.95;;;4.47;;
9924;SDS011;5001;51.674;7.868;2023-06-26T09:21:13;6.85;;;5.25;;
9924;SDS011;5001;51.674;7.868;2023-06-26T09:23:41;10.68;;;5.13;;
9924;SDS011;5001;51.674;7.868;2023-06-26T09:26:08;5.78;;;4.55;;
9924;SDS011;5001;51.674;7.868;2023-06-26T09:28:35;10.35;;;4.60;;
9924;SDS011;5001;51.674;7.868;2023-06-26T09:31:03;7.85;;;3.85;;
9924;SDS011;5001;51.674;7.868;2023-06-26T09:33:34;6.15;;;3.60;;
9924;SDS011;5001;51.674;7.868;2023-06-26T09:36:06;4.68;;;3.60;;
9924;SDS011;5001;51.674;7.868;2023-06-26T09:38:34;7.40;;;3.67;;
9924;SDS011;5001;51.674;7.868;2023-06-26T09:41:05;7.20;;;3.83;;
9924;SDS011;5001;51.674;7.868;2023-06-26T09:43:32;7.55;;;3.17;;
9924;SDS011;5001;51.674;7.868;2023-06-26T09:46:00;7.15;;;3.53;;
9924;SDS011;5001;51.674;7.868;2023-06-26T09:48:27;6.38;;;3.28;;
9924;SDS011;5001;51.674;7.868;2023-06-26T09:50:55;7.53;;;3.22;;
9924;SDS011;5001;51.674;7.868;2023-06-26T09:53:38;8.18;;;3.60;;
9924;SDS011;5001;51.674;7.868;2023-06-26T09:56:10;5.85;;;3.25;;
9924;SDS011;5001;51.674;7.868;2023-06-26T09:58:45;7.45;;;3.55;;
9924;SDS011;5001;51.674;7.868;2023-06-26T10:01:12;4.45;;;3.45;;
9924;SDS011;5001;51.674;7.868;2023-06-26T10:03:40;18.70;;;11.10;;
9924;SDS011;5001;51.674;7.868;2023-06-26T10:06:07;11.95;;;5.72;;
9924;SDS011;5001;51.674;7.868;2023-06-26T10:08:36;10.65;;;6.07;;
9924;SDS011;5001;51.674;7.868;2023-06-26T10:11:06;5.82;;;3.85;;
9924;SDS011;5001;51.674;7.868;2023-06-26T10:13:39;7.10;;;3.90;;
9924;SDS011;5001;51.674;7.868;2023-06-26T10:16:13;8.13;;;4.38;;
9924;SDS011;5001;51.674;7.868;2023-06-26T10:18:50;3.83;;;2.88;;
9924;SDS011;5001;51.674;7.868;2023-06-26T10:21:20;6.05;;;3.03;;
9924;SDS011;5001;51.674;7.868;2023-06-26T10:23:49;5.30;;;2.85;;
9924;SDS011;5001;51.674;7.868;2023-06-26T10:26:20;5.00;;;2.83;;
9924;SDS011;5001;51.674;7.868;2023-06-26T10:28:48;4.53;;;2.83;;
9924;SDS011;5001;51.674;7.868;2023-06-26T10:31:19;5.88;;;2.67;;
9924;SDS011;5001;51.674;7.868;2023-06-26T10:33:49;5.22;;;2.30;;
9924;SDS011;5001;51.674;7.868;2023-06-26T10:36:17;7.95;;;2.63;;
9924;SDS011;5001;51.674;7.868;2023-06-26T10:38:49;5.07;;;2.70;;
9924;SDS011;5001;51.674;7.868;2023-06-26T10:41:21;4.03;;;2.28;;
9924;SDS011;5001;51.674;7.868;2023-06-26T10:46:32;4.60;;;2.45;;
9924;SDS011;5001;51.674;7.868;2023-06-26T10:49:01;3.25;;;1.83;;
9924;SDS011;5001;51.674;7.868;2023-06-26T10:51:29;4.47;;;2.67;;
9924;SDS011;5001;51.674;7.868;2023-06-26T10:53:57;5.00;;;2.75;;
9924;SDS011;5001;51.674;7.868;2023-06-26T10:59:18;4.80;;;2.13;;
9924;SDS011;5001;51.674;7.868;2023-06-26T11:01:53;4.05;;;2.03;;
9924;SDS011;5001;51.674;7.868;2023-06-26T11:07:14;4.18;;;3.22;;
9924;SDS011;5001;51.674;7.868;2023-06-26T11:12:34;3.88;;;2.15;;
9924;SDS011;5001;51.674;7.868;2023-06-26T11:15:07;3.47;;;1.77;;
9924;SDS011;5001;51.674;7.868;2023-06-26T11:17:34;4.80;;;2.10;;
9924;SDS011;5001;51.674;7.868;2023-06-26T11:20:06;3.78;;;1.85;;
9924;SDS011;5001;51.674;7.868;2023-06-26T11:22:37;3.33;;;2.45;;
9924;SDS011;5001;51.674;7.868;2023-06-26T11:25:05;4.63;;;2.30;;
9924;SDS011;5001;51.674;7.868;2023-06-26T11:27:43;3.13;;;1.95;;
9924;SDS011;5001;51.674;7.868;2023-06-26T11:30:22;3.20;;;2.00;;
9924;SDS011;5001;51.674;7.868;2023-06-26T11:32:50;3.30;;;1.80;;
9924;SDS011;5001;51.674;7.868;2023-06-26T11:35:23;3.13;;;1.77;;
9924;SDS011;5001;51.674;7.868;2023-06-26T11:37:56;1.80;;;1.58;;
9924;SDS011;5001;51.674;7.868;2023-06-26T11:40:31;2.35;;;1.67;;
9924;SDS011;5001;51.674;7.868;2023-06-26T11:43:02;4.20;;;1.50;;
9924;SDS011;5001;51.674;7.868;2023-06-26T11:45:31;3.88;;;1.90;;
9924;SDS011;5001;51.674;7.868;2023-06-26T11:47:59;3.80;;;1.90;;
9924;SDS011;5001;51.674;7.868;2023-06-26T11:50:27;1.83;;;1.60;;
9924;SDS011;5001;51.674;7.868;2023-06-26T11:55:25;2.92;;;1.63;;
9924;SDS011;5001;51.674;7.868;2023-06-26T11:57:53;3.65;;;1.80;;
9924;SDS011;5001;51.674;7.868;2023-06-26T12:00:24;3.00;;;2.10;;
9924;SDS011;5001;51.674;7.868;2023-06-26T12:02:51;4.05;;;1.90;;
9924;SDS011;5001;51.674;7.868;2023-06-26T12:05:19;5.93;;;2.30;;
9924;SDS011;5001;51.674;7.868;2023-06-26T12:07:47;3.67;;;2.20;;
9924;SDS011;5001;51.674;7.868;2023-06-26T12:10:15;3.40;;;2.08;;
9924;SDS011;5001;51.674;7.868;2023-06-26T12:12:43;3.20;;;2.17;;
9924;SDS011;5001;51.674;7.868;2023-06-26T12:15:13;2.55;;;1.80;;
9924;SDS011;5001;51.674;7.868;2023-06-26T12:17:44;3.80;;;2.08;;
9924;SDS011;5001;51.674;7.868;2023-06-26T12:20:18;3.83;;;2.25;;
9924;SDS011;5001;51.674;7.868;2023-06-26T12:22:47;5.25;;;2.45;;
9924;SDS011;5001;51.674;7.868;2023-06-26T12:25:15;4.40;;;2.38;;
9924;SDS011;5001;51.674;7.868;2023-06-26T12:27:47;4.63;;;1.95;;
9924;SDS011;5001;51.674;7.868;2023-06-26T12:30:16;3.88;;;2.10;;
9924;SDS011;5001;51.674;7.868;2023-06-26T12:32:46;4.40;;;2.22;;
9924;SDS011;5001;51.674;7.868;2023-06-26T12:35:13;4.60;;;1.92;;
9924;SDS011;5001;51.674;7.868;2023-06-26T12:37:42;4.22;;;2.35;;
9924;SDS011;5001;51.674;7.868;2023-06-26T12:40:17;2.30;;;1.77;;
9924;SDS011;5001;51.674;7.868;2023-06-26T12:42:45;1.60;;;1.50;;
9924;SDS011;5001;51.674;7.868;2023-06-26T12:45:13;3.03;;;2.17;;
9924;SDS011;5001;51.674;7.868;2023-06-26T12:48:13;3.90;;;2.05;;
9924;SDS011;5001;51.674;7.868;2023-06-26T12:50:43;4.30;;;2.28;;
9924;SDS011;5001;51.674;7.868;2023-06-26T12:53:11;4.03;;;2.00;;
9924;SDS011;5001;51.674;7.868;2023-06-26T12:55:39;5.10;;;2.08;;
9924;SDS011;5001;51.674;7.868;2023-06-26T12:58:06;2.70;;;1.50;;
9924;SDS011;5001;51.674;7.868;2023-06-26T13:00:35;2.45;;;1.70;;
9924;SDS011;5001;51.674;7.868;2023-06-26T13:03:03;2.90;;;1.77;;
9924;SDS011;5001;51.674;7.868;2023-06-26T13:05:30;4.32;;;1.83;;
9924;SDS011;5001;51.674;7.868;2023-06-26T13:07:57;4.00;;;1.90;;
9924;SDS011;5001;51.674;7.868;2023-06-26T13:10:26;2.70;;;1.50;;
9924;SDS011;5001;51.674;7.868;2023-06-26T13:12:55;2.15;;;1.73;;
9924;SDS011;5001;51.674;7.868;2023-06-26T13:15:22;4.90;;;2.08;;
9924;SDS011;5001;51.674;7.868;2023-06-26T13:17:49;1.58;;;1.48;;
9924;SDS011;5001;51.674;7.868;2023-06-26T13:20:16;3.28;;;1.48;;
9924;SDS011;5001;51.674;7.868;2023-06-26T13:22:43;1.45;;;1.23;;
9924;SDS011;5001;51.674;7.868;2023-06-26T13:25:12;1.90;;;1.25;;
9924;SDS011;5001;51.674;7.868;2023-06-26T13:27:39;2.45;;;1.60;;
9924;SDS011;5001;51.674;7.868;2023-06-26T13:30:06;6.15;;;1.70;;
9924;SDS011;5001;51.674;7.868;2023-06-26T13:32:34;2.00;;;1.30;;
9924;SDS011;5001;51.674;7.868;2023-06-26T13:35:01;1.95;;;1.58;;
9924;SDS011;5001;51.674;7.868;2023-06-26T13:37:28;1.77;;;1.08;;
9924;SDS011;5001;51.674;7.868;2023-06-26T13:39:55;3.28;;;1.27;;
9924;SDS011;5001;51.674;7.868;2023-06-26T13:42:22;13.57;;;1.58;;
9924;SDS011;5001;51.674;7.868;2023-06-26T13:44:49;1.60;;;1.10;;
9924;SDS011;5001;51.674;7.868;2023-06-26T13:47:28;2.20;;;1.30;;
9924;SDS011;5001;51.674;7.868;2023-06-26T13:49:55;4.15;;;1.48;;
9924;SDS011;5001;51.674;7.868;2023-06-26T13:52:22;2.25;;;1.58;;
9924;SDS011;5001;51.674;7.868;2023-06-26T13:54:49;2.85;;;1.48;;
9924;SDS011;5001;51.674;7.868;2023-06-26T13:57:16;2.55;;;1.10;;
9924;SDS011;5001;51.674;7.868;2023-06-26T13:59:43;3.00;;;1.23;;
9924;SDS011;5001;51.674;7.868;2023-06-26T14:02:13;4.72;;;1.45;;
9924;SDS011;5001;51.674;7.868;2023-06-26T14:04:40;3.30;;;1.30;;
9924;SDS011;5001;51.674;7.868;2023-06-26T14:07:08;1.92;;;1.40;;
9924;SDS011;5001;51.674;7.868;2023-06-26T14:09:35;3.53;;;1.20;;
9924;SDS011;5001;51.674;7.868;2023-06-26T14:12:02;1.77;;;1.08;;
9924;SDS011;5001;51.674;7.868;2023-06-26T14:14:30;2.35;;;1.30;;
9924;SDS011;5001;51.674;7.868;2023-06-26T14:16:57;3.20;;;1.20;;
9924;SDS011;5001;51.674;7.868;2023-06-26T14:19:25;4.75;;;1.58;;
9924;SDS011;5001;51.674;7.868;2023-06-26T14:21:52;2.47;;;1.30;;
9924;SDS011;5001;51.674;7.868;2023-06-26T14:24:20;1.98;;;1.38;;
9924;SDS011;5001;51.674;7.868;2023-06-26T14:26:47;2.75;;;1.58;;
9924;SDS011;5001;51.674;7.868;2023-06-26T14:29:13;2.10;;;1.23;;
9924;SDS011;5001;51.674;7.868;2023-06-26T14:31:43;2.13;;;1.20;;
9924;SDS011;5001;51.674;7.868;2023-06-26T14:34:10;1.58;;;1.10;;
9924;SDS011;5001;51.674;7.868;2023-06-26T14:36:37;3.45;;;1.23;;
9924;SDS011;5001;51.674;7.868;2023-06-26T14:39:04;2.38;;;1.30;;
9924;SDS011;5001;51.674;7.868;2023-06-26T14:41:31;2.30;;;1.23;;
9924;SDS011;5001;51.674;7.868;2023-06-26T14:43:59;2.92;;;1.30;;
9924;SDS011;5001;51.674;7.868;2023-06-26T14:46:27;2.08;;;1.27;;
9924;SDS011;5001;51.674;7.868;2023-06-26T14:48:55;1.42;;;1.33;;
9924;SDS011;5001;51.674;7.868;2023-06-26T14:51:22;3.22;;;1.20;;
9924;SDS011;5001;51.674;7.868;2023-06-26T14:53:49;2.28;;;1.33;;
9924;SDS011;5001;51.674;7.868;2023-06-26T14:56:16;3.63;;;1.20;;
9924;SDS011;5001;51.674;7.868;2023-06-26T14:58:42;2.42;;;1.08;;
9924;SDS011;5001;51.674;7.868;2023-06-26T15:01:09;3.85;;;1.35;;
9924;SDS011;5001;51.674;7.868;2023-06-26T15:03:36;1.83;;;1.10;;
9924;SDS011;5001;51.674;7.868;2023-06-26T15:06:04;5.53;;;1.50;;
9924;SDS011;5001;51.674;7.868;2023-06-26T15:08:31;3.65;;;1.30;;
9924;SDS011;5001;51.674;7.868;2023-06-26T15:10:59;1.63;;;1.23;;
9924;SDS011;5001;51.674;7.868;2023-06-26T15:13:27;2.10;;;1.30;;
9924;SDS011;5001;51.674;7.868;2023-06-26T15:15:54;2.92;;;1.20;;
9924;SDS011;5001;51.674;7.868;2023-06-26T15:18:21;2.90;;;1.00;;
9924;SDS011;5001;51.674;7.868;2023-06-26T15:20:48;1.40;;;1.02;;
9924;SDS011;5001;51.674;7.868;2023-06-26T15:23:14;1.67;;;1.05;;
9924;SDS011;5001;51.674;7.868;2023-06-26T15:25:41;2.28;;;1.25;;
9924;SDS011;5001;51.674;7.868;2023-06-26T15:28:08;3.53;;;1.20;;
9924;SDS011;5001;51.674;7.868;2023-06-26T15:30:35;3.38;;;1.20;;
9924;SDS011;5001;51.674;7.868;2023-06-26T15:33:03;1.38;;;1.05;;
9924;SDS011;5001;51.674;7.868;2023-06-26T15:35:31;2.05;;;1.27;;
9924;SDS011;5001;51.674;7.868;2023-06-26T15:37:58;2.45;;;1.08;;
9924;SDS011;5001;51.674;7.868;2023-06-26T15:40:25;1.17;;;1.05;;